Aktea Osrv — SXJR — position and weather

sailwx.info

Track history (hours):
 
Tides and Currents Weather Stations Pressure Air Temp Water Temp Dewpoint Dewpoint Depression Visibility Wind Speed Wind Dir Waves Ship Positions

Aktea Osrv

Last reported at 2017-Sep-25 09:30 UTC. Time now 2017-Sep-25 09:54 UTC.
Position N 37°56' E 023°34'.

Length 79 m; draft 4.6 m.

Type: Tanker. MMSI: 240675000.

Date/timePositionNaut miles runAvg speedWind from/ knotsBaromVisibWave heightAir tempDewpointWater temp
2017-Sep-25 09:30N 37°56' E 023°34'1 1.6
2017-Sep-25 09:00N 37°56' E 023°33'0 0.8
2017-Sep-25 08:30N 37°56' E 023°33'1 1.6
2017-Sep-25 08:00N 37°56' E 023°34'0 1.0
2017-Sep-25 07:30N 37°56' E 023°33'1 1.2
2017-Sep-25 07:00N 37°56' E 023°33'1 1.5
2017-Sep-25 06:30N 37°56' E 023°34'1 1.4
2017-Sep-25 06:00N 37°56' E 023°34'1 1.2
2017-Sep-25 05:30N 37°55' E 023°35'2 3.2
2017-Sep-25 05:00N 37°55' E 023°37'1 2.8
2017-Sep-25 04:30N 37°56' E 023°39'0 0.3
2017-Sep-25 04:00N 37°55' E 023°39'0 0.0
2017-Sep-25 03:30N 37°55' E 023°39'0 0.0
2017-Sep-25 03:00N 37°55' E 023°39'0 0.0
2017-Sep-25 02:30N 37°56' E 023°39'0 0.1
2017-Sep-25 02:00N 37°55' E 023°39'0 0.0
2017-Sep-25 01:30N 37°55' E 023°39'0 0.0
2017-Sep-25 01:00N 37°55' E 023°39'0 0.1
2017-Sep-25 00:30N 37°55' E 023°39'0 0.0
2017-Sep-25 00:00N 37°55' E 023°39'0 0.0
2017-Sep-24 23:30N 37°55' E 023°39'0 0.0
2017-Sep-24 23:00N 37°55' E 023°39'0 0.0
2017-Sep-24 22:30N 37°55' E 023°39'0 0.0
2017-Sep-24 22:00N 37°55' E 023°39'0 0.0
2017-Sep-24 21:30N 37°55' E 023°39'0 0.0
2017-Sep-24 21:00N 37°55' E 023°39'0 0.0
2017-Sep-24 20:30N 37°55' E 023°39'0 0.0
2017-Sep-24 20:00N 37°55' E 023°39'0 0.0
2017-Sep-24 19:30N 37°55' E 023°39'0 0.0
2017-Sep-24 19:00N 37°55' E 023°39'0 0.1
2017-Sep-24 18:30N 37°55' E 023°39'2 3.0
2017-Sep-24 18:00N 37°55' E 023°37'2 4.2
2017-Sep-24 17:30N 37°56' E 023°34'1 2.6
2017-Sep-24 17:00N 37°56' E 023°33'1 1.6
2017-Sep-24 16:30N 37°56' E 023°34'1 1.1
2017-Sep-24 16:00N 37°56' E 023°33'0 0.7
2017-Sep-24 15:30N 37°56' E 023°33'0 0.5
2017-Sep-24 15:00N 37°56' E 023°34'0 0.9
2017-Sep-24 14:30N 37°56' E 023°33'1 1.2
2017-Sep-24 14:01N 37°56' E 023°34'1 1.6
2017-Sep-24 13:30N 37°56' E 023°33'1 1.6
2017-Sep-24 13:00N 37°56' E 023°34'1 1.2
2017-Sep-24 12:30N 37°56' E 023°33'0 0.6
2017-Sep-24 12:00N 37°56' E 023°33'1 1.5
2017-Sep-24 11:30N 37°57' E 023°34'1 1.2
2017-Sep-24 11:00N 37°56' E 023°34'1 1.4
2017-Sep-24 10:30N 37°56' E 023°33'1 1.5
2017-Sep-24 10:00N 37°56' E 023°34'1 1.6
2017-Sep-24 09:30N 37°56' E 023°33'1 1.3
2017-Sep-24 09:00N 37°56' E 023°33'0 0.8
2017-Sep-24 08:30N 37°56' E 023°33'1 1.2
2017-Sep-24 08:00N 37°56' E 023°34'1 1.1
2017-Sep-24 07:30N 37°56' E 023°33'1 1.3
2017-Sep-24 07:00N 37°56' E 023°33'1 1.4
2017-Sep-24 06:30N 37°56' E 023°34'1 1.3
2017-Sep-24 06:00N 37°55' E 023°34'1 1.1
2017-Sep-24 05:30N 37°56' E 023°35'2 4.5
2017-Sep-24 05:01N 37°55' E 023°38'1 2.1
2017-Sep-24 04:30N 37°56' E 023°39'0 0.1
2017-Sep-24 04:00N 37°55' E 023°39'0 0.0
2017-Sep-24 03:30N 37°55' E 023°39'0 0.0
2017-Sep-24 03:00N 37°55' E 023°39'0 0.0
2017-Sep-24 02:30N 37°55' E 023°39'0 0.0
2017-Sep-24 02:00N 37°55' E 023°39'0 0.0
2017-Sep-24 01:30N 37°55' E 023°39'0 0.0
2017-Sep-24 01:00N 37°55' E 023°39'0 0.0
2017-Sep-24 00:30N 37°55' E 023°39'0 0.0
2017-Sep-24 00:00N 37°55' E 023°39'0 0.0
2017-Sep-23 23:30N 37°55' E 023°39'0 0.0
2017-Sep-23 23:00N 37°55' E 023°39'0 0.0
2017-Sep-23 22:30N 37°55' E 023°39'0 0.0
2017-Sep-23 22:00N 37°56' E 023°39'0 0.0
2017-Sep-23 21:30N 37°56' E 023°39'0 0.1
2017-Sep-23 21:00N 37°56' E 023°39'0 0.0
2017-Sep-23 20:30N 37°56' E 023°39'0 0.0
2017-Sep-23 20:00N 37°56' E 023°39'0 0.0
2017-Sep-22 02:00N 37°56' E 023°39'0 0.0
2017-Sep-22 01:30N 37°56' E 023°39'0 0.0
2017-Sep-22 01:00N 37°56' E 023°39'0 0.1
2017-Sep-22 00:30N 37°56' E 023°39'0 0.0
2017-Sep-22 00:00N 37°56' E 023°39'0 0.0
2017-Sep-21 23:30N 37°56' E 023°39'0 0.0
2017-Sep-21 23:00N 37°56' E 023°39'0 0.0
2017-Sep-21 22:30N 37°56' E 023°39'0 0.0
2017-Sep-21 22:00N 37°56' E 023°39'0 0.0
2017-Sep-21 21:30N 37°56' E 023°39'0 0.0
2017-Sep-21 21:00N 37°56' E 023°39'0 0.0
2017-Sep-21 20:30N 37°56' E 023°39'0 0.0
2017-Sep-21 20:00N 37°56' E 023°39'0 0.0
2017-Sep-21 19:30N 37°56' E 023°39'0 0.0
2017-Sep-21 19:00N 37°56' E 023°39'0 0.0
2017-Sep-21 18:30N 37°56' E 023°39'1 1.3
2017-Sep-21 18:00N 37°55' E 023°40'1 3.0
2017-Sep-21 17:30N 37°54' E 023°41'1 2.8
2017-Sep-21 17:00N 37°53' E 023°42'0 0.9
2017-Sep-21 16:30N 37°53' E 023°43'1 2.4
2017-Sep-21 16:00N 37°54' E 023°42'1 2.4
2017-Sep-21 15:30N 37°55' E 023°41'1 2.2
2017-Sep-21 15:00N 37°55' E 023°40'1 2.2
2017-Sep-21 14:30N 37°55' E 023°38'1 2.6
2017-Sep-21 14:00N 37°55' E 023°37'1 2.4
2017-Sep-21 13:30N 37°55' E 023°35'1 1.4
2017-Sep-21 13:00N 37°56' E 023°34'0 0.6
2017-Sep-21 12:30N 37°56' E 023°35'1 1.3
2017-Sep-21 12:01N 37°55' E 023°35'1 1.3
2017-Sep-21 11:30N 37°56' E 023°34'0 0.8
2017-Sep-21 11:00N 37°56' E 023°35'0 0.4
2017-Sep-21 10:30N 37°56' E 023°35'0 0.8
2017-Sep-21 10:01N 37°56' E 023°35'0 0.4
2017-Sep-21 09:30N 37°56' E 023°35'0 0.6
2017-Sep-21 09:00N 37°56' E 023°35'0 0.2
2017-Sep-21 08:30N 37°56' E 023°35'0 0.1
2017-Sep-21 08:00N 37°56' E 023°35'0 0.5
2017-Sep-21 07:30N 37°56' E 023°35'0 1.0
2017-Sep-21 07:00N 37°55' E 023°35'1 2.7
2017-Sep-21 06:30N 37°55' E 023°37'2 3.3
2017-Sep-21 06:00N 37°55' E 023°39'1 1.9
2017-Sep-21 05:30N 37°56' E 023°40'0 0.0
2017-Sep-21 05:00N 37°56' E 023°40'0 0.0
2017-Sep-21 04:30N 37°56' E 023°40'0 0.0
2017-Sep-21 04:00N 37°56' E 023°40'0 0.0
2017-Sep-21 03:30N 37°56' E 023°40'0 0.0
2017-Sep-21 03:00N 37°56' E 023°40'0 0.0
2017-Sep-21 02:30N 37°56' E 023°40'0 0.0
2017-Sep-21 02:00N 37°56' E 023°40'0 0.0
2017-Sep-21 01:30N 37°56' E 023°40'0 0.0
2017-Sep-21 01:00N 37°56' E 023°40'0 0.0
2017-Sep-21 00:30N 37°56' E 023°40'0 0.0
2017-Sep-21 00:00N 37°56' E 023°40'0 0.0
2017-Sep-20 23:30N 37°56' E 023°40'0 0.0
2017-Sep-20 23:00N 37°56' E 023°40'0 0.0
2017-Sep-20 22:30N 37°56' E 023°40'0 0.0
2017-Sep-20 22:00N 37°56' E 023°40'0 0.0
2017-Sep-20 21:30N 37°56' E 023°40'0 0.0
2017-Sep-20 21:00N 37°56' E 023°40'0 0.0
2017-Sep-20 20:30N 37°56' E 023°40'0 0.0
2017-Sep-20 20:00N 37°56' E 023°40'0 0.0
2017-Sep-20 19:31N 37°56' E 023°40'0 0.0
2017-Sep-20 19:00N 37°56' E 023°40'0 0.0
2017-Sep-20 18:30N 37°56' E 023°40'0 0.0
2017-Sep-20 18:00N 37°56' E 023°40'0 0.0
2017-Sep-20 17:30N 37°56' E 023°40'0 0.9
2017-Sep-20 17:00N 37°56' E 023°40'1 1.0
2017-Sep-20 16:30N 37°55' E 023°39'1 1.5
2017-Sep-20 16:00N 37°56' E 023°40'1 1.7
2017-Sep-20 15:30N 37°55' E 023°41'1 2.0
2017-Sep-20 15:00N 37°55' E 023°42'2 1.9
2017-Sep-20 14:00N 37°53' E 023°43'1 1.9
2017-Sep-20 13:31N 37°52' E 023°43'1 2.0
2017-Sep-20 13:00N 37°51' E 023°43'1 1.3
2017-Sep-20 12:30N 37°52' E 023°44'1 1.7
2017-Sep-20 12:00N 37°52' E 023°43'1 1.2
2017-Sep-20 11:30N 37°53' E 023°43'1 1.2
2017-Sep-20 11:00N 37°52' E 023°43'0 0.6
2017-Sep-20 10:30N 37°53' E 023°43'1 1.3
2017-Sep-20 10:00N 37°53' E 023°42'1 1.3
2017-Sep-20 09:30N 37°54' E 023°42'1 1.6
2017-Sep-20 09:00N 37°55' E 023°42'1 1.3
2017-Sep-20 08:30N 37°55' E 023°42'1 1.5
2017-Sep-20 08:00N 37°55' E 023°41'0 0.9
2017-Sep-20 07:30N 37°56' E 023°41'1 1.2
2017-Sep-20 07:00N 37°55' E 023°41'1 1.4
2017-Sep-20 06:30N 37°55' E 023°40'1 1.3
2017-Sep-20 06:00N 37°55' E 023°39'1 1.3
2017-Sep-20 05:30N 37°55' E 023°38'1 1.5
2017-Sep-20 05:00N 37°56' E 023°37'0 0.9
2017-Sep-20 04:30N 37°55' E 023°38'1 1.5
2017-Sep-20 04:00N 37°55' E 023°39'1 1.6
2017-Sep-20 03:30N 37°56' E 023°40'1 1.3
2017-Sep-20 03:00N 37°56' E 023°41'1 1.8
2017-Sep-20 02:30N 37°55' E 023°41'1 1.7
2017-Sep-20 02:00N 37°54' E 023°42'1 1.7
2017-Sep-20 01:30N 37°53' E 023°42'1 1.8
2017-Sep-20 01:00N 37°52' E 023°42'1 1.5
2017-Sep-20 00:30N 37°52' E 023°42'1 1.5
2017-Sep-20 00:00N 37°51' E 023°43'0 0.6
2017-Sep-19 23:30N 37°51' E 023°43'1 1.2
2017-Sep-19 23:00N 37°52' E 023°42'1 1.3
2017-Sep-19 22:30N 37°52' E 023°42'1 1.2
2017-Sep-19 22:00N 37°53' E 023°42'1 1.2
2017-Sep-19 21:30N 37°53' E 023°42'1 1.2
2017-Sep-19 21:00N 37°54' E 023°41'1 1.2
2017-Sep-19 20:30N 37°55' E 023°41'1 1.2
2017-Sep-19 20:00N 37°55' E 023°40'1 0.6
2017-Sep-19 19:05N 37°56' E 023°40'0 2.0
2017-Sep-19 19:00N 37°56' E 023°41'1 1.9
2017-Sep-19 18:30N 37°55' E 023°42'1 1.9
2017-Sep-19 18:00N 37°54' E 023°42'1 2.0
2017-Sep-19 17:30N 37°53' E 023°42'1 1.9
2017-Sep-19 17:00N 37°52' E 023°43'1 1.2
2017-Sep-19 16:30N 37°53' E 023°42'1 1.5
2017-Sep-19 16:00N 37°53' E 023°42'1 1.5
2017-Sep-19 15:30N 37°54' E 023°42'1 1.5
2017-Sep-19 15:00N 37°55' E 023°41'1 1.5
2017-Sep-19 14:30N 37°55' E 023°41'0 1.0
2017-Sep-19 14:00N 37°56' E 023°40'1 1.2
2017-Sep-19 13:30N 37°55' E 023°41'1 1.5
2017-Sep-19 13:00N 37°54' E 023°41'1 1.8
2017-Sep-19 12:30N 37°54' E 023°41'1 2.0
2017-Sep-19 12:00N 37°53' E 023°42'1 1.5
2017-Sep-19 11:30N 37°52' E 023°43'1 1.5
2017-Sep-19 11:00N 37°52' E 023°44'0 0.2
2017-Sep-19 10:31N 37°52' E 023°43'1 1.5
2017-Sep-19 10:00N 37°52' E 023°43'1 1.6
2017-Sep-19 09:30N 37°53' E 023°42'1 1.7
2017-Sep-19 09:01N 37°54' E 023°42'0 0.7
2017-Sep-19 08:31N 37°54' E 023°42'0 0.6
2017-Sep-19 08:00N 37°55' E 023°42'1 1.4
2017-Sep-19 07:30N 37°55' E 023°41'1 1.5
2017-Sep-19 07:00N 37°56' E 023°41'1 1.5
2017-Sep-19 06:30N 37°56' E 023°40'0 0.8
2017-Sep-19 06:00N 37°55' E 023°39'0 0.2
2017-Sep-19 05:30N 37°55' E 023°39'0 0.2
2017-Sep-19 05:00N 37°55' E 023°39'0 0.8
2017-Sep-19 04:30N 37°56' E 023°39'1 1.1
2017-Sep-19 04:00N 37°55' E 023°40'0 1.0
2017-Sep-19 03:30N 37°55' E 023°40'1 1.1
2017-Sep-19 03:00N 37°55' E 023°40'1 1.6
2017-Sep-19 02:30N 37°55' E 023°41'1 1.7
2017-Sep-19 02:00N 37°54' E 023°42'1 1.6
2017-Sep-19 01:30N 37°54' E 023°42'1 1.6
2017-Sep-19 01:00N 37°53' E 023°42'1 1.5
2017-Sep-19 00:30N 37°52' E 023°42'1 1.5
2017-Sep-19 00:01N 37°51' E 023°42'1 1.6
2017-Sep-18 23:30N 37°52' E 023°42'1 1.7
2017-Sep-18 23:00N 37°53' E 023°42'1 1.0
2017-Sep-18 22:30N 37°53' E 023°43'1 1.1
2017-Sep-18 22:00N 37°54' E 023°42'1 1.2
2017-Sep-18 21:30N 37°54' E 023°42'1 1.5
2017-Sep-18 21:00N 37°55' E 023°41'1 1.6
2017-Sep-18 20:30N 37°56' E 023°41'1 1.4
2017-Sep-18 20:00N 37°56' E 023°40'1 1.6
2017-Sep-18 19:30N 37°55' E 023°39'1 1.2
2017-Sep-18 19:00N 37°56' E 023°39'1 1.1
2017-Sep-18 18:30N 37°56' E 023°40'1 1.1
2017-Sep-18 18:00N 37°55' E 023°40'1 1.5
2017-Sep-18 17:31N 37°55' E 023°41'1 1.9
2017-Sep-18 17:00N 37°54' E 023°42'1 1.8
2017-Sep-18 16:30N 37°53' E 023°42'1 1.9
2017-Sep-18 16:00N 37°53' E 023°43'1 2.0
2017-Sep-18 15:30N 37°52' E 023°43'1 2.0
2017-Sep-18 15:00N 37°51' E 023°43'1 2.0
2017-Sep-18 14:30N 37°50' E 023°44'1 1.9
2017-Sep-18 14:00N 37°49' E 023°44'0 0.2
2017-Sep-18 13:30N 37°49' E 023°44'1 1.8
2017-Sep-18 13:00N 37°50' E 023°44'1 1.8
2017-Sep-18 12:30N 37°50' E 023°44'1 1.7
2017-Sep-18 12:00N 37°51' E 023°44'1 1.7
2017-Sep-18 11:30N 37°52' E 023°44'1 1.0
2017-Sep-18 11:00N 37°52' E 023°43'1 1.6
2017-Sep-18 10:30N 37°53' E 023°42'0 1.0
2017-Sep-18 10:00N 37°53' E 023°42'0 0.3
2017-Sep-18 09:30N 37°53' E 023°43'0 0.6
2017-Sep-18 09:00N 37°54' E 023°42'0 0.2
2017-Sep-18 08:30N 37°54' E 023°42'0 0.2
2017-Sep-18 08:01N 37°54' E 023°42'0 0.9
2017-Sep-18 07:30N 37°54' E 023°42'1 1.5
2017-Sep-18 07:00N 37°55' E 023°42'1 1.1
2017-Sep-18 06:30N 37°55' E 023°41'0 0.7
2017-Sep-18 06:01N 37°55' E 023°41'0 0.7
2017-Sep-18 05:31N 37°56' E 023°41'0 0.5
2017-Sep-18 05:00N 37°55' E 023°41'0 0.4
2017-Sep-18 04:30N 37°55' E 023°41'1 1.6
2017-Sep-18 04:00N 37°55' E 023°42'1 1.6
2017-Sep-18 03:30N 37°54' E 023°42'1 1.1
2017-Sep-18 03:00N 37°54' E 023°42'1 1.7
2017-Sep-18 02:30N 37°53' E 023°42'1 1.7
2017-Sep-18 02:00N 37°52' E 023°43'1 1.7
2017-Sep-18 01:30N 37°51' E 023°43'1 1.7
2017-Sep-18 01:00N 37°50' E 023°43'1 1.7
2017-Sep-18 00:30N 37°50' E 023°43'1 1.7
2017-Sep-18 00:00N 37°49' E 023°43'1 1.2
2017-Sep-17 23:30N 37°48' E 023°44'1 1.7
2017-Sep-17 23:00N 37°49' E 023°44'1 1.7
2017-Sep-17 22:30N 37°50' E 023°43'1 1.7
2017-Sep-17 22:00N 37°51' E 023°43'1 1.6
2017-Sep-17 21:30N 37°51' E 023°43'1 1.6
2017-Sep-17 21:00N 37°52' E 023°43'1 1.6
2017-Sep-17 20:30N 37°53' E 023°42'1 1.6
2017-Sep-17 20:00N 37°54' E 023°42'1 1.7
2017-Sep-17 19:30N 37°54' E 023°42'1 1.5
2017-Sep-17 19:00N 37°55' E 023°41'1 1.4
2017-Sep-17 18:30N 37°55' E 023°40'1 1.7
2017-Sep-17 18:00N 37°56' E 023°39'1 1.8
2017-Sep-17 17:30N 37°55' E 023°38'1 1.8
2017-Sep-17 17:00N 37°55' E 023°37'1 1.7
2017-Sep-17 16:31N 37°56' E 023°36'1 1.8
2017-Sep-17 16:00N 37°56' E 023°35'1 1.7
2017-Sep-17 15:30N 37°56' E 023°34'1 1.6
2017-Sep-17 15:00N 37°56' E 023°33'1 1.2
2017-Sep-17 14:30N 37°56' E 023°33'1 1.8
2017-Sep-17 14:00N 37°56' E 023°34'0 0.1
2017-Sep-17 13:30N 37°56' E 023°34'0 0.5
2017-Sep-17 13:00N 37°56' E 023°34'0 0.3
2017-Sep-17 12:30N 37°56' E 023°34'0 0.3
2017-Sep-17 12:00N 37°56' E 023°34'0 0.5
2017-Sep-17 11:30N 37°56' E 023°34'0 0.6
2017-Sep-17 11:00N 37°56' E 023°34'0 0.8
2017-Sep-17 10:30N 37°56' E 023°35'1 1.1
2017-Sep-17 10:00N 37°56' E 023°34'0 0.1
2017-Sep-17 09:30N 37°56' E 023°34'0 0.7
2017-Sep-17 09:01N 37°56' E 023°34'0 0.3
2017-Sep-17 08:31N 37°56' E 023°34'0 0.9
2017-Sep-17 08:00N 37°56' E 023°34'0 0.8
2017-Sep-17 07:30N 37°56' E 023°34'0 0.4
2017-Sep-17 07:00N 37°56' E 023°34'0 0.7
2017-Sep-17 06:30N 37°55' E 023°34'1 1.3
2017-Sep-17 06:00N 37°55' E 023°35'0 0.2
2017-Sep-17 05:30N 37°55' E 023°35'0 0.5
2017-Sep-17 05:01N 37°55' E 023°35'1 1.8
2017-Sep-17 04:31N 37°55' E 023°36'2 3.2
2017-Sep-17 04:00N 37°55' E 023°38'1 1.2
2017-Sep-17 03:30N 37°55' E 023°39'0 0.0
2017-Sep-17 03:00N 37°55' E 023°39'0 0.0
2017-Sep-17 02:30N 37°55' E 023°39'0 0.0
2017-Sep-17 02:00N 37°55' E 023°39'0 0.0
2017-Sep-17 01:30N 37°55' E 023°39'0 0.0
2017-Sep-17 01:01N 37°55' E 023°39'0 0.0
2017-Sep-17 00:30N 37°55' E 023°39'0 0.0
2017-Sep-17 00:00N 37°55' E 023°39'0 0.0
2017-Sep-16 23:30N 37°55' E 023°39'0 0.0
2017-Sep-16 23:00N 37°55' E 023°39'0 0.0
2017-Sep-16 22:30N 37°55' E 023°39'0 0.0
2017-Sep-16 22:00N 37°55' E 023°39'0 0.0
2017-Sep-16 21:30N 37°55' E 023°39'0 0.0
2017-Sep-16 21:00N 37°55' E 023°39'0 0.1
2017-Sep-16 20:30N 37°55' E 023°39'0 0.0
2017-Sep-16 20:00N 37°55' E 023°39'0 0.0
2017-Sep-16 19:30N 37°55' E 023°39'0 0.2
2017-Sep-16 19:01N 37°55' E 023°39'3 6.0
2017-Sep-16 18:30N 37°54' E 023°42'1 2.7
2017-Sep-16 18:00N 37°52' E 023°43'1 1.4
2017-Sep-16 17:30N 37°52' E 023°43'1 1.5
2017-Sep-16 17:00N 37°52' E 023°43'1 1.3
2017-Sep-16 16:30N 37°53' E 023°43'0 0.7
2017-Sep-16 16:00N 37°53' E 023°42'1 1.5
2017-Sep-16 15:30N 37°54' E 023°42'1 1.7
2017-Sep-16 15:00N 37°55' E 023°42'1 1.6
2017-Sep-16 14:30N 37°55' E 023°41'1 1.7
2017-Sep-16 14:00N 37°56' E 023°40'1 1.7
2017-Sep-16 13:30N 37°55' E 023°39'0 0.9
2017-Sep-16 13:00N 37°55' E 023°39'2 3.5
2017-Sep-16 12:30N 37°55' E 023°36'2 3.4
2017-Sep-16 12:00N 37°55' E 023°34'0 0.9
2017-Sep-16 11:30N 37°56' E 023°34'0 0.2
2017-Sep-16 11:01N 37°56' E 023°34'1 1.0
2017-Sep-16 10:30N 37°56' E 023°34'1 1.5
2017-Sep-16 10:01N 37°56' E 023°35'1 1.1
2017-Sep-16 09:30N 37°55' E 023°35'1 1.2
2017-Sep-16 09:00N 37°55' E 023°34'0 0.8
2017-Sep-16 08:30N 37°56' E 023°34'0 0.9
2017-Sep-16 08:00N 37°55' E 023°35'0 0.8
2017-Sep-16 07:30N 37°55' E 023°34'0 0.2
2017-Sep-16 07:00N 37°56' E 023°34'1 1.0
2017-Sep-16 06:30N 37°55' E 023°34'1 1.6
2017-Sep-16 06:00N 37°54' E 023°34'0 0.3
2017-Sep-16 05:30N 37°54' E 023°34'0 0.7
2017-Sep-16 05:00N 37°55' E 023°34'1 1.3
2017-Sep-16 04:30N 37°55' E 023°35'1 2.9
2017-Sep-16 04:00N 37°56' E 023°37'1 2.9
2017-Sep-16 03:30N 37°55' E 023°38'0 0.1
2017-Sep-16 03:00N 37°55' E 023°38'0 0.1
2017-Sep-16 02:30N 37°55' E 023°38'0 0.0
2017-Sep-16 02:00N 37°55' E 023°38'0 0.1
2017-Sep-16 01:30N 37°55' E 023°39'0 0.0
2017-Sep-16 01:00N 37°55' E 023°39'0 0.0
2017-Sep-16 00:30N 37°55' E 023°39'0 0.0
2017-Sep-16 00:00N 37°55' E 023°39'0 0.0
2017-Sep-15 23:30N 37°55' E 023°39'0 0.2
2017-Sep-15 23:00N 37°55' E 023°38'2 4.0
2017-Sep-15 22:30N 37°57' E 023°37'0 0.1
2017-Sep-15 22:00N 37°57' E 023°37'0 0.0
2017-Sep-15 21:30N 37°57' E 023°37'0 0.0
2017-Sep-15 21:00N 37°57' E 023°37'0 0.0
2017-Sep-15 20:30N 37°57' E 023°37'0 0.0
2017-Sep-15 20:00N 37°57' E 023°37'0 0.0
2017-Sep-15 19:30N 37°57' E 023°37'0 0.0
2017-Sep-15 19:00N 37°57' E 023°37'0 0.0
2017-Sep-15 18:30N 37°57' E 023°37'1 2.1
2017-Sep-15 18:00N 37°56' E 023°37'3 5.9
2017-Sep-15 17:30N 37°55' E 023°41'1 2.0
2017-Sep-15 17:00N 37°54' E 023°42'1 2.3
2017-Sep-15 16:30N 37°53' E 023°43'1 2.1
2017-Sep-15 16:00N 37°52' E 023°43'1 2.1
2017-Sep-15 15:30N 37°51' E 023°43'1 1.9
2017-Sep-15 15:00N 37°51' E 023°44'1 1.7
2017-Sep-15 14:30N 37°50' E 023°44'1 1.6
2017-Sep-15 14:00N 37°49' E 023°44'0 0.3
2017-Sep-15 13:30N 37°49' E 023°44'1 2.0
2017-Sep-15 13:00N 37°50' E 023°43'1 2.0
2017-Sep-15 12:30N 37°51' E 023°44'1 1.9
2017-Sep-15 12:00N 37°52' E 023°44'0 0.7
2017-Sep-15 11:31N 37°52' E 023°43'1 2.0
2017-Sep-15 11:00N 37°53' E 023°43'1 1.6
2017-Sep-15 10:30N 37°54' E 023°42'1 1.7
2017-Sep-15 10:00N 37°54' E 023°42'  
Track history (hours):
 
Tides and Currents Weather Stations Pressure Air Temp Water Temp Dewpoint Dewpoint Depression Visibility Wind Speed Wind Dir Waves Ship Positions

Aktea Osrv

Last reported at 2017-Sep-25 09:30 UTC. Time now 2017-Sep-25 09:54 UTC.
Position N 37°56' E 023°34'.

Length 79 m; draft 4.6 m.

Type: Tanker. MMSI: 240675000.

Date/timePositionNaut miles runAvg speedWind from/ knotsBaromVisibWave heightAir tempDewpointWater temp
2017-Sep-25 09:30N 37°56' E 023°34'1 1.6
2017-Sep-25 09:00N 37°56' E 023°33'0 0.8
2017-Sep-25 08:30N 37°56' E 023°33'1 1.6
2017-Sep-25 08:00N 37°56' E 023°34'0 1.0
2017-Sep-25 07:30N 37°56' E 023°33'1 1.2
2017-Sep-25 07:00N 37°56' E 023°33'1 1.5
2017-Sep-25 06:30N 37°56' E 023°34'1 1.4
2017-Sep-25 06:00N 37°56' E 023°34'1 1.2
2017-Sep-25 05:30N 37°55' E 023°35'2 3.2
2017-Sep-25 05:00N 37°55' E 023°37'1 2.8
2017-Sep-25 04:30N 37°56' E 023°39'0 0.3
2017-Sep-25 04:00N 37°55' E 023°39'0 0.0
2017-Sep-25 03:30N 37°55' E 023°39'0 0.0
2017-Sep-25 03:00N 37°55' E 023°39'0 0.0
2017-Sep-25 02:30N 37°56' E 023°39'0 0.1
2017-Sep-25 02:00N 37°55' E 023°39'0 0.0
2017-Sep-25 01:30N 37°55' E 023°39'0 0.0
2017-Sep-25 01:00N 37°55' E 023°39'0 0.1
2017-Sep-25 00:30N 37°55' E 023°39'0 0.0
2017-Sep-25 00:00N 37°55' E 023°39'0 0.0
2017-Sep-24 23:30N 37°55' E 023°39'0 0.0
2017-Sep-24 23:00N 37°55' E 023°39'0 0.0
2017-Sep-24 22:30N 37°55' E 023°39'0 0.0
2017-Sep-24 22:00N 37°55' E 023°39'0 0.0
2017-Sep-24 21:30N 37°55' E 023°39'0 0.0
2017-Sep-24 21:00N 37°55' E 023°39'0 0.0
2017-Sep-24 20:30N 37°55' E 023°39'0 0.0
2017-Sep-24 20:00N 37°55' E 023°39'0 0.0
2017-Sep-24 19:30N 37°55' E 023°39'0 0.0
2017-Sep-24 19:00N 37°55' E 023°39'0 0.1
2017-Sep-24 18:30N 37°55' E 023°39'2 3.0
2017-Sep-24 18:00N 37°55' E 023°37'2 4.2
2017-Sep-24 17:30N 37°56' E 023°34'1 2.6
2017-Sep-24 17:00N 37°56' E 023°33'1 1.6
2017-Sep-24 16:30N 37°56' E 023°34'1 1.1
2017-Sep-24 16:00N 37°56' E 023°33'0 0.7
2017-Sep-24 15:30N 37°56' E 023°33'0 0.5
2017-Sep-24 15:00N 37°56' E 023°34'0 0.9
2017-Sep-24 14:30N 37°56' E 023°33'1 1.2
2017-Sep-24 14:01N 37°56' E 023°34'1 1.6
2017-Sep-24 13:30N 37°56' E 023°33'1 1.6
2017-Sep-24 13:00N 37°56' E 023°34'1 1.2
2017-Sep-24 12:30N 37°56' E 023°33'0 0.6
2017-Sep-24 12:00N 37°56' E 023°33'1 1.5
2017-Sep-24 11:30N 37°57' E 023°34'1 1.2
2017-Sep-24 11:00N 37°56' E 023°34'1 1.4
2017-Sep-24 10:30N 37°56' E 023°33'1 1.5
2017-Sep-24 10:00N 37°56' E 023°34'1 1.6
2017-Sep-24 09:30N 37°56' E 023°33'1 1.3
2017-Sep-24 09:00N 37°56' E 023°33'0 0.8
2017-Sep-24 08:30N 37°56' E 023°33'1 1.2
2017-Sep-24 08:00N 37°56' E 023°34'1 1.1
2017-Sep-24 07:30N 37°56' E 023°33'1 1.3
2017-Sep-24 07:00N 37°56' E 023°33'1 1.4
2017-Sep-24 06:30N 37°56' E 023°34'1 1.3
2017-Sep-24 06:00N 37°55' E 023°34'1 1.1
2017-Sep-24 05:30N 37°56' E 023°35'2 4.5
2017-Sep-24 05:01N 37°55' E 023°38'1 2.1
2017-Sep-24 04:30N 37°56' E 023°39'0 0.1
2017-Sep-24 04:00N 37°55' E 023°39'0 0.0
2017-Sep-24 03:30N 37°55' E 023°39'0 0.0
2017-Sep-24 03:00N 37°55' E 023°39'0 0.0
2017-Sep-24 02:30N 37°55' E 023°39'0 0.0
2017-Sep-24 02:00N 37°55' E 023°39'0 0.0
2017-Sep-24 01:30N 37°55' E 023°39'0 0.0
2017-Sep-24 01:00N 37°55' E 023°39'0 0.0
2017-Sep-24 00:30N 37°55' E 023°39'0 0.0
2017-Sep-24 00:00N 37°55' E 023°39'0 0.0
2017-Sep-23 23:30N 37°55' E 023°39'0 0.0
2017-Sep-23 23:00N 37°55' E 023°39'0 0.0
2017-Sep-23 22:30N 37°55' E 023°39'0 0.0
2017-Sep-23 22:00N 37°56' E 023°39'0 0.0
2017-Sep-23 21:30N 37°56' E 023°39'0 0.1
2017-Sep-23 21:00N 37°56' E 023°39'0 0.0
2017-Sep-23 20:30N 37°56' E 023°39'0 0.0
2017-Sep-23 20:00N 37°56' E 023°39'0 0.0
2017-Sep-22 02:00N 37°56' E 023°39'0 0.0
2017-Sep-22 01:30N 37°56' E 023°39'0 0.0
2017-Sep-22 01:00N 37°56' E 023°39'0 0.1
2017-Sep-22 00:30N 37°56' E 023°39'0 0.0
2017-Sep-22 00:00N 37°56' E 023°39'0 0.0
2017-Sep-21 23:30N 37°56' E 023°39'0 0.0
2017-Sep-21 23:00N 37°56' E 023°39'0 0.0
2017-Sep-21 22:30N 37°56' E 023°39'0 0.0
2017-Sep-21 22:00N 37°56' E 023°39'0 0.0
2017-Sep-21 21:30N 37°56' E 023°39'0 0.0
2017-Sep-21 21:00N 37°56' E 023°39'0 0.0
2017-Sep-21 20:30N 37°56' E 023°39'0 0.0
2017-Sep-21 20:00N 37°56' E 023°39'0 0.0
2017-Sep-21 19:30N 37°56' E 023°39'0 0.0
2017-Sep-21 19:00N 37°56' E 023°39'0 0.0
2017-Sep-21 18:30N 37°56' E 023°39'1 1.3
2017-Sep-21 18:00N 37°55' E 023°40'1 3.0
2017-Sep-21 17:30N 37°54' E 023°41'1 2.8
2017-Sep-21 17:00N 37°53' E 023°42'0 0.9
2017-Sep-21 16:30N 37°53' E 023°43'1 2.4
2017-Sep-21 16:00N 37°54' E 023°42'1 2.4
2017-Sep-21 15:30N 37°55' E 023°41'1 2.2
2017-Sep-21 15:00N 37°55' E 023°40'1 2.2
2017-Sep-21 14:30N 37°55' E 023°38'1 2.6
2017-Sep-21 14:00N 37°55' E 023°37'1 2.4
2017-Sep-21 13:30N 37°55' E 023°35'1 1.4
2017-Sep-21 13:00N 37°56' E 023°34'0 0.6
2017-Sep-21 12:30N 37°56' E 023°35'1 1.3
2017-Sep-21 12:01N 37°55' E 023°35'1 1.3
2017-Sep-21 11:30N 37°56' E 023°34'0 0.8
2017-Sep-21 11:00N 37°56' E 023°35'0 0.4
2017-Sep-21 10:30N 37°56' E 023°35'0 0.8
2017-Sep-21 10:01N 37°56' E 023°35'0 0.4
2017-Sep-21 09:30N 37°56' E 023°35'0 0.6
2017-Sep-21 09:00N 37°56' E 023°35'0 0.2
2017-Sep-21 08:30N 37°56' E 023°35'0 0.1
2017-Sep-21 08:00N 37°56' E 023°35'0 0.5
2017-Sep-21 07:30N 37°56' E 023°35'0 1.0
2017-Sep-21 07:00N 37°55' E 023°35'1 2.7
2017-Sep-21 06:30N 37°55' E 023°37'2 3.3
2017-Sep-21 06:00N 37°55' E 023°39'1 1.9
2017-Sep-21 05:30N 37°56' E 023°40'0 0.0
2017-Sep-21 05:00N 37°56' E 023°40'0 0.0
2017-Sep-21 04:30N 37°56' E 023°40'0 0.0
2017-Sep-21 04:00N 37°56' E 023°40'0 0.0
2017-Sep-21 03:30N 37°56' E 023°40'0 0.0
2017-Sep-21 03:00N 37°56' E 023°40'0 0.0
2017-Sep-21 02:30N 37°56' E 023°40'0 0.0
2017-Sep-21 02:00N 37°56' E 023°40'0 0.0
2017-Sep-21 01:30N 37°56' E 023°40'0 0.0
2017-Sep-21 01:00N 37°56' E 023°40'0 0.0
2017-Sep-21 00:30N 37°56' E 023°40'0 0.0
2017-Sep-21 00:00N 37°56' E 023°40'0 0.0
2017-Sep-20 23:30N 37°56' E 023°40'0 0.0
2017-Sep-20 23:00N 37°56' E 023°40'0 0.0
2017-Sep-20 22:30N 37°56' E 023°40'0 0.0
2017-Sep-20 22:00N 37°56' E 023°40'0 0.0
2017-Sep-20 21:30N 37°56' E 023°40'0 0.0
2017-Sep-20 21:00N 37°56' E 023°40'0 0.0
2017-Sep-20 20:30N 37°56' E 023°40'0 0.0
2017-Sep-20 20:00N 37°56' E 023°40'0 0.0
2017-Sep-20 19:31N 37°56' E 023°40'0 0.0
2017-Sep-20 19:00N 37°56' E 023°40'0 0.0
2017-Sep-20 18:30N 37°56' E 023°40'0 0.0
2017-Sep-20 18:00N 37°56' E 023°40'0 0.0
2017-Sep-20 17:30N 37°56' E 023°40'0 0.9
2017-Sep-20 17:00N 37°56' E 023°40'1 1.0
2017-Sep-20 16:30N 37°55' E 023°39'1 1.5
2017-Sep-20 16:00N 37°56' E 023°40'1 1.7
2017-Sep-20 15:30N 37°55' E 023°41'1 2.0
2017-Sep-20 15:00N 37°55' E 023°42'2 1.9
2017-Sep-20 14:00N 37°53' E 023°43'1 1.9
2017-Sep-20 13:31N 37°52' E 023°43'1 2.0
2017-Sep-20 13:00N 37°51' E 023°43'1 1.3
2017-Sep-20 12:30N 37°52' E 023°44'1 1.7
2017-Sep-20 12:00N 37°52' E 023°43'1 1.2
2017-Sep-20 11:30N 37°53' E 023°43'1 1.2
2017-Sep-20 11:00N 37°52' E 023°43'0 0.6
2017-Sep-20 10:30N 37°53' E 023°43'1 1.3
2017-Sep-20 10:00N 37°53' E 023°42'1 1.3
2017-Sep-20 09:30N 37°54' E 023°42'1 1.6
2017-Sep-20 09:00N 37°55' E 023°42'1 1.3
2017-Sep-20 08:30N 37°55' E 023°42'1 1.5
2017-Sep-20 08:00N 37°55' E 023°41'0 0.9
2017-Sep-20 07:30N 37°56' E 023°41'1 1.2
2017-Sep-20 07:00N 37°55' E 023°41'1 1.4
2017-Sep-20 06:30N 37°55' E 023°40'1 1.3
2017-Sep-20 06:00N 37°55' E 023°39'1 1.3
2017-Sep-20 05:30N 37°55' E 023°38'1 1.5
2017-Sep-20 05:00N 37°56' E 023°37'0 0.9
2017-Sep-20 04:30N 37°55' E 023°38'1 1.5
2017-Sep-20 04:00N 37°55' E 023°39'1 1.6
2017-Sep-20 03:30N 37°56' E 023°40'1 1.3
2017-Sep-20 03:00N 37°56' E 023°41'1 1.8
2017-Sep-20 02:30N 37°55' E 023°41'1 1.7
2017-Sep-20 02:00N 37°54' E 023°42'1 1.7
2017-Sep-20 01:30N 37°53' E 023°42'1 1.8
2017-Sep-20 01:00N 37°52' E 023°42'1 1.5
2017-Sep-20 00:30N 37°52' E 023°42'1 1.5
2017-Sep-20 00:00N 37°51' E 023°43'0 0.6
2017-Sep-19 23:30N 37°51' E 023°43'1 1.2
2017-Sep-19 23:00N 37°52' E 023°42'1 1.3
2017-Sep-19 22:30N 37°52' E 023°42'1 1.2
2017-Sep-19 22:00N 37°53' E 023°42'1 1.2
2017-Sep-19 21:30N 37°53' E 023°42'1 1.2
2017-Sep-19 21:00N 37°54' E 023°41'1 1.2
2017-Sep-19 20:30N 37°55' E 023°41'1 1.2
2017-Sep-19 20:00N 37°55' E 023°40'1 0.6
2017-Sep-19 19:05N 37°56' E 023°40'0 2.0
2017-Sep-19 19:00N 37°56' E 023°41'1 1.9
2017-Sep-19 18:30N 37°55' E 023°42'1 1.9
2017-Sep-19 18:00N 37°54' E 023°42'1 2.0
2017-Sep-19 17:30N 37°53' E 023°42'1 1.9
2017-Sep-19 17:00N 37°52' E 023°43'1 1.2
2017-Sep-19 16:30N 37°53' E 023°42'1 1.5
2017-Sep-19 16:00N 37°53' E 023°42'1 1.5
2017-Sep-19 15:30N 37°54' E 023°42'1 1.5
2017-Sep-19 15:00N 37°55' E 023°41'1 1.5
2017-Sep-19 14:30N 37°55' E 023°41'0 1.0
2017-Sep-19 14:00N 37°56' E 023°40'1 1.2
2017-Sep-19 13:30N 37°55' E 023°41'1 1.5
2017-Sep-19 13:00N 37°54' E 023°41'1 1.8
2017-Sep-19 12:30N 37°54' E 023°41'1 2.0
2017-Sep-19 12:00N 37°53' E 023°42'1 1.5
2017-Sep-19 11:30N 37°52' E 023°43'1 1.5
2017-Sep-19 11:00N 37°52' E 023°44'0 0.2
2017-Sep-19 10:31N 37°52' E 023°43'1 1.5
2017-Sep-19 10:00N 37°52' E 023°43'1 1.6
2017-Sep-19 09:30N 37°53' E 023°42'1 1.7
2017-Sep-19 09:01N 37°54' E 023°42'0 0.7
2017-Sep-19 08:31N 37°54' E 023°42'0 0.6
2017-Sep-19 08:00N 37°55' E 023°42'1 1.4
2017-Sep-19 07:30N 37°55' E 023°41'1 1.5
2017-Sep-19 07:00N 37°56' E 023°41'1 1.5
2017-Sep-19 06:30N 37°56' E 023°40'0 0.8
2017-Sep-19 06:00N 37°55' E 023°39'0 0.2
2017-Sep-19 05:30N 37°55' E 023°39'0 0.2
2017-Sep-19 05:00N 37°55' E 023°39'0 0.8
2017-Sep-19 04:30N 37°56' E 023°39'1 1.1
2017-Sep-19 04:00N 37°55' E 023°40'0 1.0
2017-Sep-19 03:30N 37°55' E 023°40'1 1.1
2017-Sep-19 03:00N 37°55' E 023°40'1 1.6
2017-Sep-19 02:30N 37°55' E 023°41'1 1.7
2017-Sep-19 02:00N 37°54' E 023°42'1 1.6
2017-Sep-19 01:30N 37°54' E 023°42'1 1.6
2017-Sep-19 01:00N 37°53' E 023°42'1 1.5
2017-Sep-19 00:30N 37°52' E 023°42'1 1.5
2017-Sep-19 00:01N 37°51' E 023°42'1 1.6
2017-Sep-18 23:30N 37°52' E 023°42'1 1.7
2017-Sep-18 23:00N 37°53' E 023°42'1 1.0
2017-Sep-18 22:30N 37°53' E 023°43'1 1.1
2017-Sep-18 22:00N 37°54' E 023°42'1 1.2
2017-Sep-18 21:30N 37°54' E 023°42'1 1.5
2017-Sep-18 21:00N 37°55' E 023°41'1 1.6
2017-Sep-18 20:30N 37°56' E 023°41'1 1.4
2017-Sep-18 20:00N 37°56' E 023°40'1 1.6
2017-Sep-18 19:30N 37°55' E 023°39'1 1.2
2017-Sep-18 19:00N 37°56' E 023°39'1 1.1
2017-Sep-18 18:30N 37°56' E 023°40'1 1.1
2017-Sep-18 18:00N 37°55' E 023°40'1 1.5
2017-Sep-18 17:31N 37°55' E 023°41'1 1.9
2017-Sep-18 17:00N 37°54' E 023°42'1 1.8
2017-Sep-18 16:30N 37°53' E 023°42'1 1.9
2017-Sep-18 16:00N 37°53' E 023°43'1 2.0
2017-Sep-18 15:30N 37°52' E 023°43'1 2.0
2017-Sep-18 15:00N 37°51' E 023°43'1 2.0
2017-Sep-18 14:30N 37°50' E 023°44'1 1.9
2017-Sep-18 14:00N 37°49' E 023°44'0 0.2
2017-Sep-18 13:30N 37°49' E 023°44'1 1.8
2017-Sep-18 13:00N 37°50' E 023°44'1 1.8
2017-Sep-18 12:30N 37°50' E 023°44'1 1.7
2017-Sep-18 12:00N 37°51' E 023°44'1 1.7
2017-Sep-18 11:30N 37°52' E 023°44'1 1.0
2017-Sep-18 11:00N 37°52' E 023°43'1 1.6
2017-Sep-18 10:30N 37°53' E 023°42'0 1.0
2017-Sep-18 10:00N 37°53' E 023°42'0 0.3
2017-Sep-18 09:30N 37°53' E 023°43'0 0.6
2017-Sep-18 09:00N 37°54' E 023°42'0 0.2
2017-Sep-18 08:30N 37°54' E 023°42'0 0.2
2017-Sep-18 08:01N 37°54' E 023°42'0 0.9
2017-Sep-18 07:30N 37°54' E 023°42'1 1.5
2017-Sep-18 07:00N 37°55' E 023°42'1 1.1
2017-Sep-18 06:30N 37°55' E 023°41'0 0.7
2017-Sep-18 06:01N 37°55' E 023°41'0 0.7
2017-Sep-18 05:31N 37°56' E 023°41'0 0.5
2017-Sep-18 05:00N 37°55' E 023°41'0 0.4
2017-Sep-18 04:30N 37°55' E 023°41'1 1.6
2017-Sep-18 04:00N 37°55' E 023°42'1 1.6
2017-Sep-18 03:30N 37°54' E 023°42'1 1.1
2017-Sep-18 03:00N 37°54' E 023°42'1 1.7
2017-Sep-18 02:30N 37°53' E 023°42'1 1.7
2017-Sep-18 02:00N 37°52' E 023°43'1 1.7
2017-Sep-18 01:30N 37°51' E 023°43'1 1.7
2017-Sep-18 01:00N 37°50' E 023°43'1 1.7
2017-Sep-18 00:30N 37°50' E 023°43'1 1.7
2017-Sep-18 00:00N 37°49' E 023°43'1 1.2
2017-Sep-17 23:30N 37°48' E 023°44'1 1.7
2017-Sep-17 23:00N 37°49' E 023°44'1 1.7
2017-Sep-17 22:30N 37°50' E 023°43'1 1.7
2017-Sep-17 22:00N 37°51' E 023°43'1 1.6
2017-Sep-17 21:30N 37°51' E 023°43'1 1.6
2017-Sep-17 21:00N 37°52' E 023°43'1 1.6
2017-Sep-17 20:30N 37°53' E 023°42'1 1.6
2017-Sep-17 20:00N 37°54' E 023°42'1 1.7
2017-Sep-17 19:30N 37°54' E 023°42'1 1.5
2017-Sep-17 19:00N 37°55' E 023°41'1 1.4
2017-Sep-17 18:30N 37°55' E 023°40'1 1.7
2017-Sep-17 18:00N 37°56' E 023°39'1 1.8
2017-Sep-17 17:30N 37°55' E 023°38'1 1.8
2017-Sep-17 17:00N 37°55' E 023°37'1 1.7
2017-Sep-17 16:31N 37°56' E 023°36'1 1.8
2017-Sep-17 16:00N 37°56' E 023°35'1 1.7
2017-Sep-17 15:30N 37°56' E 023°34'1 1.6
2017-Sep-17 15:00N 37°56' E 023°33'1 1.2
2017-Sep-17 14:30N 37°56' E 023°33'1 1.8
2017-Sep-17 14:00N 37°56' E 023°34'0 0.1
2017-Sep-17 13:30N 37°56' E 023°34'0 0.5
2017-Sep-17 13:00N 37°56' E 023°34'0 0.3
2017-Sep-17 12:30N 37°56' E 023°34'0 0.3
2017-Sep-17 12:00N 37°56' E 023°34'0 0.5
2017-Sep-17 11:30N 37°56' E 023°34'0 0.6
2017-Sep-17 11:00N 37°56' E 023°34'0 0.8
2017-Sep-17 10:30N 37°56' E 023°35'1 1.1
2017-Sep-17 10:00N 37°56' E 023°34'0 0.1
2017-Sep-17 09:30N 37°56' E 023°34'0 0.7
2017-Sep-17 09:01N 37°56' E 023°34'0 0.3
2017-Sep-17 08:31N 37°56' E 023°34'0 0.9
2017-Sep-17 08:00N 37°56' E 023°34'0 0.8
2017-Sep-17 07:30N 37°56' E 023°34'0 0.4
2017-Sep-17 07:00N 37°56' E 023°34'0 0.7
2017-Sep-17 06:30N 37°55' E 023°34'1 1.3
2017-Sep-17 06:00N 37°55' E 023°35'0 0.2
2017-Sep-17 05:30N 37°55' E 023°35'0 0.5
2017-Sep-17 05:01N 37°55' E 023°35'1 1.8
2017-Sep-17 04:31N 37°55' E 023°36'2 3.2
2017-Sep-17 04:00N 37°55' E 023°38'1 1.2
2017-Sep-17 03:30N 37°55' E 023°39'0 0.0
2017-Sep-17 03:00N 37°55' E 023°39'0 0.0
2017-Sep-17 02:30N 37°55' E 023°39'0 0.0
2017-Sep-17 02:00N 37°55' E 023°39'0 0.0
2017-Sep-17 01:30N 37°55' E 023°39'0 0.0
2017-Sep-17 01:01N 37°55' E 023°39'0 0.0
2017-Sep-17 00:30N 37°55' E 023°39'0 0.0
2017-Sep-17 00:00N 37°55' E 023°39'0 0.0
2017-Sep-16 23:30N 37°55' E 023°39'0 0.0
2017-Sep-16 23:00N 37°55' E 023°39'0 0.0
2017-Sep-16 22:30N 37°55' E 023°39'0 0.0
2017-Sep-16 22:00N 37°55' E 023°39'0 0.0
2017-Sep-16 21:30N 37°55' E 023°39'0 0.0
2017-Sep-16 21:00N 37°55' E 023°39'0 0.1
2017-Sep-16 20:30N 37°55' E 023°39'0 0.0
2017-Sep-16 20:00N 37°55' E 023°39'0 0.0
2017-Sep-16 19:30N 37°55' E 023°39'0 0.2
2017-Sep-16 19:01N 37°55' E 023°39'3 6.0
2017-Sep-16 18:30N 37°54' E 023°42'1 2.7
2017-Sep-16 18:00N 37°52' E 023°43'1 1.4
2017-Sep-16 17:30N 37°52' E 023°43'1 1.5
2017-Sep-16 17:00N 37°52' E 023°43'1 1.3
2017-Sep-16 16:30N 37°53' E 023°43'0 0.7
2017-Sep-16 16:00N 37°53' E 023°42'1 1.5
2017-Sep-16 15:30N 37°54' E 023°42'1 1.7
2017-Sep-16 15:00N 37°55' E 023°42'1 1.6
2017-Sep-16 14:30N 37°55' E 023°41'1 1.7
2017-Sep-16 14:00N 37°56' E 023°40'1 1.7
2017-Sep-16 13:30N 37°55' E 023°39'0 0.9
2017-Sep-16 13:00N 37°55' E 023°39'2 3.5
2017-Sep-16 12:30N 37°55' E 023°36'2 3.4
2017-Sep-16 12:00N 37°55' E 023°34'0 0.9
2017-Sep-16 11:30N 37°56' E 023°34'0 0.2
2017-Sep-16 11:01N 37°56' E 023°34'1 1.0
2017-Sep-16 10:30N 37°56' E 023°34'1 1.5
2017-Sep-16 10:01N 37°56' E 023°35'1 1.1
2017-Sep-16 09:30N 37°55' E 023°35'1 1.2
2017-Sep-16 09:00N 37°55' E 023°34'0 0.8
2017-Sep-16 08:30N 37°56' E 023°34'0 0.9
2017-Sep-16 08:00N 37°55' E 023°35'0 0.8
2017-Sep-16 07:30N 37°55' E 023°34'0 0.2
2017-Sep-16 07:00N 37°56' E 023°34'1 1.0
2017-Sep-16 06:30N 37°55' E 023°34'1 1.6
2017-Sep-16 06:00N 37°54' E 023°34'0 0.3
2017-Sep-16 05:30N 37°54' E 023°34'0 0.7
2017-Sep-16 05:00N 37°55' E 023°34'1 1.3
2017-Sep-16 04:30N 37°55' E 023°35'1 2.9
2017-Sep-16 04:00N 37°56' E 023°37'1 2.9
2017-Sep-16 03:30N 37°55' E 023°38'0 0.1
2017-Sep-16 03:00N 37°55' E 023°38'0 0.1
2017-Sep-16 02:30N 37°55' E 023°38'0 0.0
2017-Sep-16 02:00N 37°55' E 023°38'0 0.1
2017-Sep-16 01:30N 37°55' E 023°39'0 0.0
2017-Sep-16 01:00N 37°55' E 023°39'0 0.0
2017-Sep-16 00:30N 37°55' E 023°39'0 0.0
2017-Sep-16 00:00N 37°55' E 023°39'0 0.0
2017-Sep-15 23:30N 37°55' E 023°39'0 0.2
2017-Sep-15 23:00N 37°55' E 023°38'2 4.0
2017-Sep-15 22:30N 37°57' E 023°37'0 0.1
2017-Sep-15 22:00N 37°57' E 023°37'0 0.0
2017-Sep-15 21:30N 37°57' E 023°37'0 0.0
2017-Sep-15 21:00N 37°57' E 023°37'0 0.0
2017-Sep-15 20:30N 37°57' E 023°37'0 0.0
2017-Sep-15 20:00N 37°57' E 023°37'0 0.0
2017-Sep-15 19:30N 37°57' E 023°37'0 0.0
2017-Sep-15 19:00N 37°57' E 023°37'0 0.0
2017-Sep-15 18:30N 37°57' E 023°37'1 2.1
2017-Sep-15 18:00N 37°56' E 023°37'3 5.9
2017-Sep-15 17:30N 37°55' E 023°41'1 2.0
2017-Sep-15 17:00N 37°54' E 023°42'1 2.3
2017-Sep-15 16:30N 37°53' E 023°43'1 2.1
2017-Sep-15 16:00N 37°52' E 023°43'1 2.1
2017-Sep-15 15:30N 37°51' E 023°43'1 1.9
2017-Sep-15 15:00N 37°51' E 023°44'1 1.7
2017-Sep-15 14:30N 37°50' E 023°44'1 1.6
2017-Sep-15 14:00N 37°49' E 023°44'0 0.3
2017-Sep-15 13:30N 37°49' E 023°44'1 2.0
2017-Sep-15 13:00N 37°50' E 023°43'1 2.0
2017-Sep-15 12:30N 37°51' E 023°44'1 1.9
2017-Sep-15 12:00N 37°52' E 023°44'0 0.7
2017-Sep-15 11:31N 37°52' E 023°43'1 2.0
2017-Sep-15 11:00N 37°53' E 023°43'1 1.6
2017-Sep-15 10:30N 37°54' E 023°42'1 1.7
2017-Sep-15 10:00N 37°54' E 023°42'  

Dump ship's entire track history